Time;durP1;ratioP1;P1;durP2;ratioP2;P2;SDS_P1;SDS_P2;PMS_P1;PMS_P2;Temp;Humidity;BMP_temperature;BMP_pressure;BME280_temperature;BME280_humidity;BME280_pressure;Samples;Min_cycle;Max_cycle;Signal;HPM_P1;HPM_P2
2024/02/19 09:00:13;;;;;;;84.70;46.13;;;;;;;;;;5242912;23;20016;-89
2024/02/19 09:02:42;;;;;;;72.57;43.45;;;;;;;;;;4965147;28;20445;-90
2024/02/19 09:05:09;;;;;;;68.53;40.58;;;;;;;;;;4948669;28;20023;-88
2024/02/19 09:07:35;;;;;;;62.83;37.78;;;;;;;;;;4976815;28;20493;-89
2024/02/19 09:10:01;;;;;;;67.63;38.78;;;;;;;;;;4981628;28;20034;-90
2024/02/19 09:12:26;;;;;;;64.93;38.55;;;;;;;;;;4960900;28;20096;-88
2024/02/19 09:14:52;;;;;;;68.07;39.58;;;;;;;;;;4977633;28;20023;-91
2024/02/19 09:17:17;;;;;;;70.50;40.80;;;;;;;;;;4983451;28;20057;-88
2024/02/19 09:19:43;;;;;;;67.32;37.70;;;;;;;;;;4968547;28;20110;-89
2024/02/19 09:22:08;;;;;;;61.03;37.08;;;;;;;;;;4977985;28;20525;-92
2024/02/19 09:24:34;;;;;;;60.33;34.90;;;;;;;;;;4962229;28;20393;-91
2024/02/19 09:27:00;;;;;;;55.35;32.78;;;;;;;;;;4977655;28;20030;-89
2024/02/19 09:29:25;;;;;;;52.53;32.08;;;;;;;;;;4976407;28;20042;-90
2024/02/19 09:31:51;;;;;;;53.17;32.53;;;;;;;;;;4960562;28;20030;-89
2024/02/19 09:34:17;;;;;;;47.95;30.27;;;;;;;;;;4978811;28;20060;-88
2024/02/19 09:36:43;;;;;;;54.10;32.83;;;;;;;;;;4960021;28;20031;-90
2024/02/19 09:39:10;;;;;;;49.25;31.70;;;;;;;;;;4976240;28;20043;-88
2024/02/19 09:41:36;;;;;;;44.10;28.75;;;;;;;;;;4992737;28;20050;-90
2024/02/19 09:44:01;;;;;;;54.05;31.50;;;;;;;;;;4976269;28;20034;-89
2024/02/19 09:46:26;;;;;;;49.25;29.25;;;;;;;;;;4977383;28;20027;-90
2024/02/19 09:48:55;;;;;;;52.92;34.30;;;;;;;;;;4977148;28;20022;-90
2024/02/19 09:51:24;;;;;;;54.65;32.97;;;;;;;;;;4976273;28;20033;-90
2024/02/19 09:53:51;;;;;;;49.65;32.17;;;;;;;;;;4976196;28;20027;-90
2024/02/19 09:56:22;;;;;;;53.47;33.15;;;;;;;;;;4976069;28;20089;-90
2024/02/19 09:58:48;;;;;;;53.53;33.28;;;;;;;;;;4973283;28;20473;-90
2024/02/19 10:01:14;;;;;;;46.13;30.15;;;;;;;;;;4957140;28;20363;-89
2024/02/19 10:03:39;;;;;;;49.08;33.03;;;;;;;;;;4956086;29;20031;-89
2024/02/19 10:06:06;;;;;;;46.35;29.70;;;;;;;;;;4957338;29;20019;-91
2024/02/19 10:08:31;;;;;;;51.42;33.67;;;;;;;;;;4978313;28;20027;-90
2024/02/19 10:10:59;;;;;;;44.58;28.13;;;;;;;;;;4959792;28;20126;-90
2024/02/19 10:13:24;;;;;;;41.85;27.67;;;;;;;;;;4959442;28;20030;-90
2024/02/19 10:15:50;;;;;;;51.38;32.50;;;;;;;;;;4976776;28;20023;-89
2024/02/19 10:18:20;;;;;;;49.67;32.00;;;;;;;;;;4943840;28;20486;-91
2024/02/19 10:20:52;;;;;;;56.13;36.65;;;;;;;;;;4957298;29;20094;-91
2024/02/19 10:23:19;;;;;;;54.25;35.72;;;;;;;;;;4972252;28;20031;-90
2024/02/19 10:25:45;;;;;;;43.00;28.98;;;;;;;;;;4972573;28;20035;-89
2024/02/19 10:28:11;;;;;;;51.58;33.42;;;;;;;;;;4957584;29;20027;-90
2024/02/19 10:30:37;;;;;;;43.90;30.85;;;;;;;;;;4939975;29;20130;-88
2024/02/19 10:33:03;;;;;;;60.53;36.40;;;;;;;;;;4955206;29;20175;-89
2024/02/19 10:35:28;;;;;;;55.38;36.13;;;;;;;;;;4956960;29;20165;-90
2024/02/19 10:37:58;;;;;;;59.63;37.38;;;;;;;;;;4956620;29;20031;-89
2024/02/19 10:40:24;;;;;;;58.60;37.67;;;;;;;;;;4957078;29;20155;-89
2024/02/19 10:42:50;;;;;;;56.63;36.10;;;;;;;;;;4957315;28;20042;-91
2024/02/19 10:45:17;;;;;;;50.65;34.05;;;;;;;;;;4956494;29;20023;-90
2024/02/19 10:47:44;;;;;;;53.20;33.58;;;;;;;;;;4956697;29;20031;-88
2024/02/19 10:50:10;;;;;;;39.03;26.52;;;;;;;;;;4956805;29;20050;-88
2024/02/19 10:52:39;;;;;;;49.55;31.88;;;;;;;;;;4956442;29;20485;-88
2024/02/19 10:55:09;;;;;;;38.55;25.35;;;;;;;;;;4956205;29;20492;-92
2024/02/19 10:57:53;;;;;;;54.42;34.25;;;;;;;;;;4956441;29;20145;-88
2024/02/19 11:00:25;;;;;;;49.40;34.30;;;;;;;;;;4970932;28;20489;-88
2024/02/19 11:03:05;;;;;;;58.85;37.88;;;;;;;;;;4975050;28;20027;-88
2024/02/19 11:05:34;;;;;;;70.45;45.63;;;;;;;;;;4976098;28;20027;-88
2024/02/19 11:08:04;;;;;;;72.43;43.05;;;;;;;;;;4990838;28;20031;-88
2024/02/19 11:10:43;;;;;;;66.65;44.20;;;;;;;;;;4975058;28;20122;-88
2024/02/19 11:13:11;;;;;;;80.65;45.72;;;;;;;;;;4974278;28;20023;-87
2024/02/19 11:15:41;;;;;;;70.22;45.88;;;;;;;;;;4975355;28;20050;-86
2024/02/19 11:18:11;;;;;;;;;;;;;;;;;;4958719;28;20042;-88
2024/02/19 11:20:36;;;;;;;;;;;;;;;;;;4975912;28;19910;-88
2024/02/19 11:23:03;;;;;;;79.70;45.85;;;;;;;;;;4973832;28;19969;-88
2024/02/19 11:25:28;;;;;;;80.65;46.40;;;;;;;;;;4975429;28;20027;-88
2024/02/19 11:27:54;;;;;;;80.07;49.05;;;;;;;;;;4975575;28;20027;-87
2024/02/19 11:30:19;;;;;;;83.63;49.00;;;;;;;;;;4975254;28;20496;-89
2024/02/19 11:32:46;;;;;;;79.80;49.53;;;;;;;;;;4974774;28;20023;-89
2024/02/19 11:35:13;;;;;;;74.38;45.78;;;;;;;;;;4976000;28;20023;-89
2024/02/19 11:37:39;;;;;;;80.20;50.95;;;;;;;;;;4975482;28;20070;-88
2024/02/19 11:40:05;;;;;;;82.45;49.92;;;;;;;;;;4975625;28;20492;-85
2024/02/19 11:42:31;;;;;;;83.53;52.55;;;;;;;;;;4973957;28;20085;-87
2024/02/19 11:44:58;;;;;;;77.78;50.75;;;;;;;;;;4975152;28;20035;-89
2024/02/19 11:47:25;;;;;;;89.97;54.33;;;;;;;;;;4973961;28;20067;-89
2024/02/19 11:49:52;;;;;;;87.82;54.50;;;;;;;;;;4975350;28;20034;-88
2024/02/19 11:52:17;;;;;;;96.28;56.38;;;;;;;;;;4975059;28;20033;-89
2024/02/19 11:54:43;;;;;;;82.85;50.00;;;;;;;;;;4975051;28;20027;-89
2024/02/19 11:57:09;;;;;;;92.03;53.38;;;;;;;;;;4977159;28;20351;-89
2024/02/19 11:59:35;;;;;;;89.78;54.88;;;;;;;;;;4973631;28;20523;-89
2024/02/19 12:02:03;;;;;;;87.28;52.45;;;;;;;;;;4957613;28;20027;-86
2024/02/19 12:04:28;;;;;;;91.18;52.72;;;;;;;;;;4975057;28;20018;-88
2024/02/19 12:06:54;;;;;;;86.45;50.75;;;;;;;;;;4975177;28;20525;-88
2024/02/19 12:09:20;;;;;;;86.82;52.33;;;;;;;;;;4975000;28;20485;-87
2024/02/19 12:11:46;;;;;;;81.15;50.33;;;;;;;;;;4974664;28;20031;-88
2024/02/19 12:14:13;;;;;;;81.60;49.50;;;;;;;;;;4974890;28;20466;-89
2024/02/19 12:16:39;;;;;;;79.60;48.22;;;;;;;;;;4973529;28;20027;-88
2024/02/19 12:19:05;;;;;;;77.43;48.40;;;;;;;;;;4974830;28;20027;-89
2024/02/19 12:21:32;;;;;;;76.20;48.33;;;;;;;;;;4973811;28;20027;-88
2024/02/19 12:24:00;;;;;;;81.43;49.13;;;;;;;;;;4975250;28;20026;-89
2024/02/19 12:26:26;;;;;;;87.10;50.50;;;;;;;;;;4974586;28;20050;-87
2024/02/19 12:28:52;;;;;;;71.43;44.70;;;;;;;;;;4974651;28;20478;-87
2024/02/19 12:31:17;;;;;;;77.65;47.22;;;;;;;;;;4973635;28;20038;-88
2024/02/19 12:33:43;;;;;;;67.70;39.92;;;;;;;;;;4973808;28;20034;-87
2024/02/19 12:36:12;;;;;;;62.22;41.20;;;;;;;;;;4973354;28;20481;-89
2024/02/19 12:38:45;;;;;;;62.22;40.33;;;;;;;;;;4974350;28;20038;-90
2024/02/19 12:41:12;;;;;;;66.47;43.08;;;;;;;;;;4976909;28;20053;-89
2024/02/19 12:43:38;;;;;;;72.63;44.45;;;;;;;;;;4961714;28;20027;-90
2024/02/19 12:46:07;;;;;;;75.13;46.50;;;;;;;;;;4977681;28;20027;-89
2024/02/19 12:48:35;;;;;;;79.30;47.95;;;;;;;;;;4978614;28;20512;-89
2024/02/19 12:51:05;;;;;;;63.70;40.78;;;;;;;;;;4977307;28;20043;-89
2024/02/19 12:53:31;;;;;;;77.20;48.80;;;;;;;;;;4978047;28;20031;-90
2024/02/19 12:55:57;;;;;;;80.03;49.70;;;;;;;;;;4978253;28;20417;-89
2024/02/19 12:58:23;;;;;;;76.60;46.55;;;;;;;;;;4978585;28;20087;-88
2024/02/19 13:00:49;;;;;;;82.25;46.85;;;;;;;;;;4976721;28;20042;-88
2024/02/19 13:03:15;;;;;;;75.88;48.80;;;;;;;;;;4960649;28;20540;-88
2024/02/19 13:05:40;;;;;;;67.88;41.97;;;;;;;;;;4978512;28;20019;-88
2024/02/19 13:08:10;;;;;;;63.22;40.22;;;;;;;;;;4960909;28;20035;-88
2024/02/19 13:10:36;;;;;;;71.75;44.90;;;;;;;;;;4976916;28;20022;-88
2024/02/19 13:13:02;;;;;;;80.53;47.75;;;;;;;;;;4977053;28;20058;-89
2024/02/19 13:15:27;;;;;;;75.28;46.45;;;;;;;;;;4976839;28;20082;-89
2024/02/19 17:30:16;;;;;;;93.97;46.92;;;;;;;;;;5066577;23;20086;-95
2024/02/19 17:32:42;;;;;;;82.80;44.33;;;;;;;;;;4960486;28;20039;-90
2024/02/19 17:35:08;;;;;;;78.90;43.78;;;;;;;;;;4939808;29;20096;-90
2024/02/19 17:37:33;;;;;;;75.45;43.67;;;;;;;;;;4944269;29;20062;-92
2024/02/19 17:39:58;;;;;;;73.13;42.78;;;;;;;;;;4940785;29;20028;-93
2024/02/19 17:42:24;;;;;;;69.35;41.13;;;;;;;;;;4926719;29;20035;-92
2024/02/19 17:44:50;;;;;;;66.82;38.88;;;;;;;;;;4931237;29;20031;-92
2024/02/19 17:47:15;;;;;;;71.50;39.25;;;;;;;;;;4938735;29;20110;-91
2024/02/19 17:49:41;;;;;;;61.80;37.08;;;;;;;;;;4938713;29;20474;-90
2024/02/19 17:52:07;;;;;;;63.38;35.97;;;;;;;;;;4939458;29;20062;-91
2024/02/19 17:54:33;;;;;;;59.88;35.53;;;;;;;;;;4957221;29;20031;-90
2024/02/19 17:57:01;;;;;;;65.40;37.35;;;;;;;;;;4940638;29;20478;-94
2024/02/19 17:59:27;;;;;;;56.25;34.17;;;;;;;;;;4940787;29;20031;-90
2024/02/19 18:01:53;;;;;;;60.30;35.67;;;;;;;;;;4941020;29;20023;-90
2024/02/19 18:04:19;;;;;;;63.80;37.53;;;;;;;;;;4941097;29;20031;-93
2024/02/19 18:06:45;;;;;;;63.13;36.42;;;;;;;;;;4941120;29;20023;-93
2024/02/19 18:09:10;;;;;;;60.80;35.83;;;;;;;;;;4940883;29;20024;-91
2024/02/19 18:11:36;;;;;;;63.40;37.20;;;;;;;;;;4941252;29;20406;-93
2024/02/19 18:14:02;;;;;;;61.42;36.33;;;;;;;;;;4937759;29;20105;-92
2024/02/19 18:16:28;;;;;;;67.65;37.97;;;;;;;;;;4941046;29;20051;-90
2024/02/19 18:18:53;;;;;;;72.45;42.30;;;;;;;;;;4941080;29;20036;-90
2024/02/19 18:21:20;;;;;;;66.35;40.55;;;;;;;;;;4941115;29;20028;-92
2024/02/19 18:23:47;;;;;;;65.47;39.88;;;;;;;;;;4940831;29;20496;-92
2024/02/19 18:26:13;;;;;;;65.60;38.03;;;;;;;;;;4940552;29;20114;-91
2024/02/19 18:28:38;;;;;;;67.25;37.90;;;;;;;;;;4943033;29;20442;-93
2024/02/19 18:31:09;;;;;;;67.90;37.00;;;;;;;;;;4950910;28;20091;-90
2024/02/19 18:33:35;;;;;;;67.45;39.42;;;;;;;;;;4960068;28;20031;-91
2024/02/19 18:36:02;;;;;;;63.97;37.97;;;;;;;;;;4960134;28;20077;-92
2024/02/19 18:38:28;;;;;;;71.68;40.60;;;;;;;;;;4959512;28;20465;-93
2024/02/19 18:40:56;;;;;;;68.47;38.47;;;;;;;;;;4960390;28;20124;-93
2024/02/19 18:43:22;;;;;;;73.47;42.63;;;;;;;;;;4963335;28;20023;-92
2024/02/19 18:45:48;;;;;;;75.22;43.63;;;;;;;;;;4961815;28;20027;-92
2024/02/19 18:48:13;;;;;;;71.25;42.55;;;;;;;;;;4960836;28;20038;-93
2024/02/19 18:50:39;;;;;;;74.20;41.05;;;;;;;;;;4955379;28;20069;-92
2024/02/19 18:53:04;;;;;;;72.63;41.78;;;;;;;;;;4976596;28;20393;-89
2024/02/19 18:55:31;;;;;;;74.10;41.63;;;;;;;;;;4977354;28;20055;-93
2024/02/19 18:57:58;;;;;;;75.80;41.60;;;;;;;;;;4977789;28;20023;-91
2024/02/19 19:00:24;;;;;;;71.75;42.00;;;;;;;;;;4959314;28;20030;-87
2024/02/19 19:02:49;;;;;;;73.15;42.60;;;;;;;;;;4977192;28;20033;-92
2024/02/19 19:05:14;;;;;;;73.20;41.55;;;;;;;;;;4943558;28;20030;-88
2024/02/19 19:07:41;;;;;;;75.55;42.00;;;;;;;;;;4959361;28;20516;-95
2024/02/19 19:10:06;;;;;;;75.75;43.63;;;;;;;;;;4977542;28;20037;-94
2024/02/19 19:12:32;;;;;;;78.85;45.10;;;;;;;;;;4977014;28;20031;-92
2024/02/19 19:14:57;;;;;;;82.70;46.45;;;;;;;;;;4959310;28;20500;-93
2024/02/19 19:17:23;;;;;;;79.20;45.53;;;;;;;;;;4977038;28;20023;-89
2024/02/19 19:19:48;;;;;;;76.80;44.08;;;;;;;;;;4959637;28;20081;-92
2024/02/19 19:22:17;;;;;;;;;;;;;;;;;;4978441;28;19946;-94
2024/02/19 19:24:45;;;;;;;;;;;;;;;;;;4959979;28;19918;-91
2024/02/19 19:27:10;;;;;;;;;;;;;;;;;;4977147;28;20004;-92
2024/02/19 19:29:36;;;;;;;;;;;;;;;;;;4960189;28;19990;-91
2024/02/19 19:32:01;;;;;;;;;;;;;;;;;;4959622;28;19922;-91
2024/02/19 19:34:27;;;;;;;;;;;;;;;;;;4959911;28;19972;-92
2024/02/19 19:36:52;;;;;;;;;;;;;;;;;;4975385;28;19951;-91
2024/02/19 19:39:17;;;;;;;;;;;;;;;;;;4959701;28;19922;-91
2024/02/19 19:41:43;;;;;;;;;;;;;;;;;;4959015;28;19918;-90
2024/02/19 19:44:11;;;;;;;;;;;;;;;;;;4959231;28;20349;-89
2024/02/19 19:46:37;;;;;;;;;;;;;;;;;;4959246;28;19997;-90
2024/02/19 19:49:04;;;;;;;;;;;;;;;;;;4962856;28;19977;-91
2024/02/19 19:51:29;;;;;;;;;;;;;;;;;;4939327;29;19926;-90
2024/02/19 19:53:55;;;;;;;;;;;;;;;;;;4939994;29;19942;-91
2024/02/19 19:56:20;;;;;;;;;;;;;;;;;;4939976;28;19961;-91
2024/02/19 19:58:45;;;;;;;;;;;;;;;;;;4940151;29;19947;-91
2024/02/19 20:01:11;;;;;;;;;;;;;;;;;;4940297;29;19922;-90
2024/02/19 20:03:37;;;;;;;;;;;;;;;;;;4958469;28;19925;-93
2024/02/19 20:06:05;;;;;;;;;;;;;;;;;;4979235;28;19993;-90
2024/02/19 20:08:31;;;;;;;;;;;;;;;;;;4984222;28;19924;-91
2024/02/19 20:10:56;;;;;;;;;;;;;;;;;;4979088;28;20008;-89
2024/02/19 20:13:22;;;;;;;;;;;;;;;;;;4959153;28;19918;-91
2024/02/19 20:15:47;;;;;;;;;;;;;;;;;;4976222;28;19914;-90
2024/02/19 20:18:13;;;;;;;;;;;;;;;;;;4976037;28;19924;-91
2024/02/19 20:20:39;;;;;;;;;;;;;;;;;;4959303;28;19969;-91
2024/02/19 20:23:04;;;;;;;;;;;;;;;;;;4943663;28;19922;-92
2024/02/19 20:25:32;;;;;;;;;;;;;;;;;;4960794;28;20277;-93
2024/02/19 20:27:59;;;;;;;;;;;;;;;;;;4943267;28;20293;-92
2024/02/19 20:30:24;;;;;;;;;;;;;;;;;;4958552;28;20353;-92
2024/02/19 20:32:51;;;;;;;;;;;;;;;;;;4974974;28;19957;-94
2024/02/19 20:35:16;;;;;;;;;;;;;;;;;;4958209;28;19961;-90
2024/02/19 20:37:42;;;;;;;;;;;;;;;;;;4975409;28;19957;-90
2024/02/19 20:40:07;;;;;;;;;;;;;;;;;;4974921;28;19923;-88
2024/02/19 20:42:34;;;;;;;;;;;;;;;;;;4974040;28;20391;-89
2024/02/19 20:45:00;;;;;;;;;;;;;;;;;;4958374;28;19922;-90
2024/02/19 20:47:25;;;;;;;;;;;;;;;;;;4974569;28;19924;-88
2024/02/19 20:49:50;;;;;;;;;;;;;;;;;;4939029;29;19919;-89
2024/02/19 20:52:16;;;;;;;;;;;;;;;;;;4939316;29;19919;-89
2024/02/19 20:54:41;;;;;;;;;;;;;;;;;;4939563;29;19977;-88
2024/02/19 20:57:07;;;;;;;;;;;;;;;;;;4939657;29;19926;-90
2024/02/19 20:59:32;;;;;;;;;;;;;;;;;;4939272;29;19925;-90
2024/02/19 21:01:58;;;;;;;;;;;;;;;;;;4941778;29;19957;-89
2024/02/19 21:04:23;;;;;;;;;;;;;;;;;;4960141;29;19922;-91
2024/02/19 21:06:48;;;;;;;;;;;;;;;;;;4942406;29;20449;-90
2024/02/19 21:09:18;;;;;;;;;;;;;;;;;;4973237;28;19918;-91
2024/02/19 21:11:44;;;;;;;;;;;;;;;;;;4961104;28;19922;-88
2024/02/19 21:14:10;;;;;;;;;;;;;;;;;;4978753;28;20365;-89
2024/02/19 21:16:36;;;;;;;;;;;;;;;;;;4960918;28;19918;-90
2024/02/19 21:19:01;;;;;;;;;;;;;;;;;;4961239;28;19929;-90
2024/02/19 21:21:27;;;;;;;;;;;;;;;;;;4961478;28;19965;-88
2024/02/19 21:23:53;;;;;;;;;;;;;;;;;;4961072;28;19964;-89
2024/02/19 21:26:19;;;;;;;;;;;;;;;;;;4960913;28;20293;-90
2024/02/19 21:28:45;;;;;;;;;;;;;;;;;;4960980;28;19918;-89
2024/02/19 21:31:10;;;;;;;;;;;;;;;;;;4961086;28;20296;-90
2024/02/19 21:33:35;;;;;;;;;;;;;;;;;;4961395;28;19922;-90
2024/02/19 21:36:04;;;;;;;;;;;;;;;;;;4945448;28;19922;-92
2024/02/19 21:38:30;;;;;;;;;;;;;;;;;;4945843;28;19962;-92
2024/02/19 21:40:55;;;;;;;;;;;;;;;;;;4979010;28;20004;-92
2024/02/19 21:43:20;;;;;;;;;;;;;;;;;;4961524;28;19918;-91
2024/02/19 21:45:51;;;;;;;;;;;;;;;;;;4961859;28;20407;-92
2024/02/19 21:48:16;;;;;;;;;;;;;;;;;;4978801;28;20370;-92
2024/02/19 21:50:41;;;;;;;;;;;;;;;;;;4978792;28;19924;-91
2024/02/19 21:53:07;;;;;;;;;;;;;;;;;;4979885;28;20062;-94
2024/02/19 21:55:32;;;;;;;;;;;;;;;;;;4962085;28;19953;-91
2024/02/19 21:57:58;;;;;;;;;;;;;;;;;;4978610;28;20380;-91
2024/02/19 22:00:23;;;;;;;;;;;;;;;;;;4961349;28;20353;-90
2024/02/19 22:02:48;;;;;;;;;;;;;;;;;;4960865;28;19968;-89
2024/02/19 22:05:14;;;;;;;;;;;;;;;;;;4960608;28;19918;-91
2024/02/19 22:07:39;;;;;;;;;;;;;;;;;;4960760;28;19968;-90
2024/02/19 22:10:05;;;;;;;;;;;;;;;;;;4960406;28;20298;-90
2024/02/19 22:12:30;;;;;;;;;;;;;;;;;;4960291;28;20048;-92
2024/02/19 22:14:57;;;;;;;;;;;;;;;;;;4959910;28;20087;-90
2024/02/19 22:17:22;;;;;;;;;;;;;;;;;;4960542;28;20391;-91
2024/02/19 22:19:48;;;;;;;;;;;;;;;;;;4960332;28;20005;-90
2024/02/19 22:22:14;;;;;;;;;;;;;;;;;;4960488;28;19918;-91
2024/02/19 22:24:39;;;;;;;;;;;;;;;;;;4960321;28;20388;-91
2024/02/19 22:27:05;;;;;;;;;;;;;;;;;;4960473;28;19962;-91
2024/02/19 22:29:30;;;;;;;;;;;;;;;;;;4960201;28;19925;-90
2024/02/19 22:31:55;;;;;;;;;;;;;;;;;;4960455;28;19922;-92
2024/02/19 22:34:21;;;;;;;;;;;;;;;;;;4961200;28;20285;-93
2024/02/19 22:36:46;;;;;;;;;;;;;;;;;;4960524;28;19922;-92
